Adrian, Oregon
Current Conditions -  °F | °C
As of 3:43 AM on Saturday 22 Nov 2014 (Local Time) from KONO Reporting Station
Haze Haze  
Wind Chill:   Ceiling: 800
Heat Index:   Visibility: 1mi
Dew Point: -1°   Wind: 0mph
Humidity: 92%   Direction: NA
Pressure: 29.72"   Gusts: NA
Location:  43.74°N, 117.07°W
Report Text: KONO 221043Z AUTO 00000KT 1SM BR BKN008 OVC055 01/M01 A2972 RMK AO2 T00061006
Loading
Personal Weather Stations






























Interactive Weather Map New forecast layout! Learn more

10-Day Weather Forecast

Advertisements
Track Severe Weather on mobile